createdAt,value
2022-08-27T00:01:22.140Z,98.99
2022-08-27T00:03:50.125Z,99.01
2022-08-27T00:06:19.340Z,99.42
2022-08-27T00:08:48.175Z,99.32
2022-08-27T00:11:17.561Z,99.44
2022-08-27T00:13:45.273Z,99.26
2022-08-27T00:16:14.649Z,99.07
2022-08-27T00:18:42.722Z,99.24
2022-08-27T00:21:10.018Z,99.37
2022-08-27T00:23:37.134Z,99.50
2022-08-27T00:26:07.863Z,99.43
2022-08-27T00:28:35.136Z,99.58
2022-08-27T00:31:02.118Z,99.35
2022-08-27T00:33:30.594Z,99.27
2022-08-27T00:35:57.774Z,99.31
2022-08-27T00:38:25.343Z,99.14
2022-08-27T00:40:53.940Z,98.87
2022-08-27T00:43:25.776Z,98.46
2022-08-27T00:45:58.585Z,98.33
2022-08-27T00:48:30.087Z,97.99
2022-08-27T00:50:57.650Z,97.85
2022-08-27T00:53:29.655Z,97.86
2022-08-27T00:56:07.247Z,97.56
2022-08-27T00:58:47.484Z,97.45
2022-08-27T01:01:17.632Z,97.29
2022-08-27T01:03:47.951Z,97.15
2022-08-27T01:06:16.356Z,97.06
2022-08-27T01:09:02.975Z,96.99
2022-08-27T01:11:31.340Z,97.00
2022-08-27T01:14:00.690Z,96.84
2022-08-27T01:16:35.721Z,96.74
2022-08-27T01:19:08.135Z,96.80
2022-08-27T01:22:29.066Z,96.85
2022-08-27T01:25:00.178Z,96.57
2022-08-27T01:27:31.377Z,96.48
2022-08-27T01:29:58.543Z,96.41
2022-08-27T01:32:28.611Z,96.29
2022-08-27T01:34:56.888Z,96.19
2022-08-27T01:37:26.190Z,96.20
2022-08-27T01:39:55.919Z,96.20
2022-08-27T01:42:32.664Z,96.15
2022-08-27T01:45:21.932Z,96.21
2022-08-27T01:47:49.123Z,96.06
2022-08-27T01:50:31.915Z,96.11
2022-08-27T01:53:03.149Z,96.41
2022-08-27T01:55:30.511Z,96.27
2022-08-27T01:58:20.002Z,96.30
2022-08-27T02:00:56.440Z,96.44
2022-08-27T02:03:24.662Z,96.41
2022-08-27T02:05:52.251Z,96.45
2022-08-27T02:08:19.178Z,96.32
2022-08-27T02:10:48.017Z,96.46
2022-08-27T02:13:15.345Z,96.52
2022-08-27T02:15:44.049Z,96.55
2022-08-27T02:18:12.118Z,96.58
2022-08-27T02:20:39.520Z,96.70
2022-08-27T02:23:06.828Z,96.62
2022-08-27T02:25:34.071Z,96.69
2022-08-27T02:28:01.894Z,96.41
2022-08-27T02:30:32.103Z,96.27
2022-08-27T02:33:01.137Z,96.13
2022-08-27T02:35:29.361Z,96.09
2022-08-27T02:37:57.132Z,96.01
2022-08-27T02:40:25.487Z,96.01
2022-08-27T02:42:52.787Z,95.92
2022-08-27T02:45:20.453Z,95.92
2022-08-27T02:47:48.588Z,95.94
2022-08-27T02:50:16.474Z,95.88
2022-08-27T02:52:46.417Z,95.97
2022-08-27T02:55:14.509Z,96.05
2022-08-27T02:57:44.272Z,96.16
2022-08-27T03:00:14.861Z,96.22
2022-08-27T03:02:42.215Z,96.42
2022-08-27T03:05:09.982Z,96.48
2022-08-27T03:07:37.416Z,96.59
2022-08-27T03:10:07.422Z,96.61
2022-08-27T03:12:36.358Z,96.76
2022-08-27T03:15:07.546Z,96.75
2022-08-27T03:17:53.101Z,96.79
2022-08-27T03:20:20.372Z,96.82
2022-08-27T03:22:47.059Z,96.60
2022-08-27T03:25:16.221Z,96.62
2022-08-27T03:27:43.572Z,96.53
2022-08-27T03:30:15.634Z,96.39
2022-08-27T03:32:43.463Z,96.42
2022-08-27T03:35:11.718Z,96.34
2022-08-27T03:37:40.109Z,96.25
2022-08-27T03:40:08.343Z,96.10
2022-08-27T03:42:36.421Z,96.13
2022-08-27T03:45:04.016Z,96.01
2022-08-27T03:47:32.366Z,96.13
2022-08-27T03:50:02.196Z,95.92
2022-08-27T03:52:29.558Z,95.78
2022-08-27T03:54:58.426Z,95.60
2022-08-27T03:57:25.722Z,95.60
2022-08-27T03:59:54.448Z,95.48
2022-08-27T04:02:21.771Z,95.51
2022-08-27T04:04:51.636Z,95.53
2022-08-27T04:07:19.079Z,95.56
2022-08-27T04:09:46.587Z,95.61
2022-08-27T04:12:13.562Z,95.75
2022-08-27T04:14:40.536Z,95.68
2022-08-27T04:17:07.986Z,95.92
2022-08-27T04:19:35.223Z,95.88
2022-08-27T04:22:06.626Z,95.80
2022-08-27T04:24:35.411Z,95.71
2022-08-27T04:27:02.778Z,95.72
2022-08-27T04:29:30.097Z,95.81
2022-08-27T04:31:57.073Z,95.87
2022-08-27T04:34:24.554Z,95.85
2022-08-27T04:36:51.585Z,95.74
2022-08-27T04:39:20.699Z,95.67
2022-08-27T04:41:50.146Z,95.73
2022-08-27T04:44:17.131Z,95.62
2022-08-27T04:46:49.149Z,95.64
2022-08-27T04:49:17.911Z,95.57
2022-08-27T04:51:44.906Z,95.48
2022-08-27T04:54:13.020Z,95.52
2022-08-27T04:56:40.948Z,95.29
2022-08-27T04:59:10.463Z,95.08
2022-08-27T05:01:39.013Z,94.73
2022-08-27T05:04:06.357Z,94.29
2022-08-27T05:06:34.066Z,93.96
2022-08-27T05:09:00.996Z,93.63
2022-08-27T05:11:32.289Z,93.41
2022-08-27T05:13:59.522Z,93.36
2022-08-27T05:16:26.299Z,93.08
2022-08-27T05:18:53.544Z,93.12
2022-08-27T05:21:30.412Z,93.07
2022-08-27T05:23:58.857Z,92.90
2022-08-27T05:26:27.095Z,92.79
2022-08-27T05:28:58.853Z,93.03
2022-08-27T05:31:25.815Z,93.08
2022-08-27T05:33:56.017Z,92.94
2022-08-27T05:36:27.491Z,92.84
2022-08-27T05:38:56.263Z,92.68
2022-08-27T05:41:31.744Z,92.49
2022-08-27T05:44:36.773Z,92.47
2022-08-27T05:46:54.832Z,92.31
2022-08-27T05:49:22.145Z,92.07
2022-08-27T05:51:49.411Z,91.93
2022-08-27T05:54:19.778Z,91.88
2022-08-27T05:56:47.922Z,91.61
2022-08-27T05:59:34.627Z,91.05
2022-08-27T06:02:02.526Z,90.83
2022-08-27T06:04:30.101Z,91.02
2022-08-27T06:06:57.408Z,90.84
2022-08-27T06:09:29.391Z,90.75
2022-08-27T06:11:58.673Z,90.65
2022-08-27T06:14:26.471Z,90.88
2022-08-27T06:16:53.516Z,90.96
2022-08-27T06:19:21.899Z,90.50
2022-08-27T06:22:00.708Z,90.39
2022-08-27T06:24:36.648Z,90.26
2022-08-27T06:27:05.587Z,90.25
2022-08-27T06:29:36.391Z,90.03
2022-08-27T06:32:05.563Z,89.85
2022-08-27T06:34:33.761Z,89.64
2022-08-27T06:37:01.242Z,89.42
2022-08-27T06:39:29.112Z,89.22
2022-08-27T06:41:58.942Z,89.10
2022-08-27T06:44:26.174Z,88.97
2022-08-27T06:46:52.841Z,88.95
2022-08-27T06:49:19.830Z,88.78
2022-08-27T06:51:47.853Z,88.62
2022-08-27T06:54:16.168Z,88.70
2022-08-27T06:56:44.622Z,88.32
2022-08-27T06:59:14.941Z,87.99
2022-08-27T07:01:44.680Z,87.96
2022-08-27T07:04:16.935Z,87.55
2022-08-27T07:06:44.063Z,87.20
2022-08-27T07:09:11.393Z,87.19
2022-08-27T07:11:39.132Z,87.06
2022-08-27T07:14:06.957Z,86.77
2022-08-27T07:16:34.726Z,86.68
2022-08-27T07:19:03.822Z,86.57
2022-08-27T07:21:32.223Z,85.91
2022-08-27T07:24:03.698Z,85.62
2022-08-27T07:26:32.405Z,85.30
2022-08-27T07:28:59.373Z,85.01
2022-08-27T07:31:28.191Z,84.77
2022-08-27T07:33:55.330Z,84.40
2022-08-27T07:36:23.375Z,83.84
2022-08-27T07:38:59.101Z,83.42
2022-08-27T07:41:32.347Z,83.24
2022-08-27T07:44:21.131Z,83.10
2022-08-27T07:46:55.513Z,81.88
2022-08-27T07:49:23.707Z,81.73
2022-08-27T07:51:51.936Z,81.77
2022-08-27T07:54:21.495Z,81.94
2022-08-27T07:56:55.003Z,82.07
2022-08-27T07:59:27.269Z,81.48
2022-08-27T08:01:56.053Z,81.17
2022-08-27T08:04:23.820Z,81.00
2022-08-27T08:06:51.944Z,80.56
2022-08-27T08:09:19.853Z,79.67
2022-08-27T08:11:48.336Z,79.44
2022-08-27T08:14:15.452Z,80.20
2022-08-27T08:16:42.700Z,80.13
2022-08-27T08:19:09.986Z,80.21
2022-08-27T08:21:38.575Z,79.66
2022-08-27T08:24:06.016Z,79.60
2022-08-27T08:26:33.804Z,79.15
2022-08-27T08:29:04.640Z,78.02
2022-08-27T08:31:32.310Z,78.28
2022-08-27T08:33:59.891Z,78.59
2022-08-27T08:36:27.208Z,79.03
2022-08-27T08:38:54.649Z,79.09
2022-08-27T08:41:34.115Z,79.13
2022-08-27T08:44:08.722Z,79.38
2022-08-27T08:46:45.407Z,79.92
2022-08-27T08:49:30.774Z,80.48
2022-08-27T08:52:30.495Z,80.22
2022-08-27T08:55:25.347Z,80.44
2022-08-27T08:58:12.602Z,80.64
2022-08-27T09:00:44.674Z,80.52
2022-08-27T09:03:16.475Z,80.43
2022-08-27T09:05:53.606Z,80.33
2022-08-27T09:08:35.657Z,80.19
2022-08-27T09:11:37.926Z,80.34
2022-08-27T09:14:36.054Z,80.49
2022-08-27T09:17:10.663Z,80.47
2022-08-27T09:19:39.129Z,80.50
2022-08-27T09:22:36.749Z,80.77
2022-08-27T09:25:20.953Z,80.48
2022-08-27T09:27:49.651Z,80.34
2022-08-27T09:30:25.562Z,80.49
2022-08-27T09:33:01.578Z,80.47
2022-08-27T09:35:34.489Z,80.02
2022-08-27T09:38:02.573Z,79.07
2022-08-27T09:40:41.530Z,78.94
2022-08-27T09:43:29.273Z,78.55
2022-08-27T09:46:00.042Z,77.91
2022-08-27T09:48:32.770Z,77.53
2022-08-27T09:51:22.126Z,77.70
2022-08-27T09:53:54.016Z,76.84
2022-08-27T09:56:29.353Z,76.80
2022-08-27T09:59:10.759Z,75.89
2022-08-27T10:01:52.131Z,75.15
2022-08-27T10:04:27.077Z,75.05
2022-08-27T10:06:54.704Z,75.35
2022-08-27T10:09:35.455Z,74.98
2022-08-27T10:12:18.364Z,73.90
2022-08-27T10:14:51.315Z,73.05
2022-08-27T10:17:44.832Z,72.90
2022-08-27T10:20:31.632Z,71.75
2022-08-27T10:23:12.492Z,71.46
2022-08-27T10:25:59.212Z,70.75
2022-08-27T10:28:34.237Z,70.72
2022-08-27T10:31:23.740Z,70.22
2022-08-27T10:34:00.108Z,69.97
2022-08-27T10:36:59.131Z,69.61
2022-08-27T10:39:41.593Z,69.08
2022-08-27T10:42:35.615Z,68.64
2022-08-27T10:45:11.266Z,68.15
2022-08-27T10:48:04.892Z,68.21
2022-08-27T10:50:44.477Z,68.41
2022-08-27T10:53:17.102Z,68.32
2022-08-27T10:55:52.329Z,67.92
2022-08-27T10:58:49.674Z,67.81
2022-08-27T11:01:37.917Z,66.90
2022-08-27T11:04:18.589Z,66.10
2022-08-27T11:07:07.305Z,66.32
2022-08-27T11:09:57.386Z,65.99
2022-08-27T11:12:37.127Z,66.50
2022-08-27T11:15:19.237Z,65.70
2022-08-27T11:17:53.450Z,64.21
2022-08-27T11:20:28.573Z,63.45
2022-08-27T11:23:08.285Z,62.45
2022-08-27T11:25:55.704Z,61.33
2022-08-27T11:28:38.428Z,60.58
2022-08-27T11:31:25.592Z,60.21
2022-08-27T11:34:07.938Z,59.94
2022-08-27T11:37:08.631Z,58.70
2022-08-27T11:39:56.739Z,58.32
2022-08-27T11:42:36.270Z,57.20
2022-08-27T11:45:30.820Z,56.80
2022-08-27T11:48:00.122Z,55.57
2022-08-27T11:50:30.901Z,55.58
2022-08-27T11:53:06.845Z,56.03
2022-08-27T11:55:39.284Z,55.20
2022-08-27T11:58:09.419Z,54.77
2022-08-27T12:00:41.853Z,54.11
2022-08-27T12:03:23.629Z,53.55
2022-08-27T12:06:10.021Z,52.39
2022-08-27T12:08:38.278Z,52.47
2022-08-27T12:11:20.185Z,52.50
2022-08-27T12:14:12.548Z,52.13
2022-08-27T12:16:54.110Z,52.73
2022-08-27T12:19:49.400Z,52.48
2022-08-27T12:22:55.473Z,52.91
2022-08-27T12:25:22.829Z,53.23
2022-08-27T12:28:00.388Z,52.89
2022-08-27T12:30:33.131Z,53.11
2022-08-27T12:33:10.207Z,53.86
2022-08-27T12:35:53.748Z,54.30
2022-08-27T12:38:32.478Z,54.35
2022-08-27T12:41:06.326Z,55.39
2022-08-27T12:43:38.157Z,56.36
2022-08-27T12:46:14.160Z,57.13
2022-08-27T12:48:45.740Z,57.23
2022-08-27T12:51:24.457Z,57.27
2022-08-27T12:54:13.057Z,56.78
2022-08-27T12:56:49.883Z,57.13
2022-08-27T12:59:38.475Z,57.04
2022-08-27T13:02:36.017Z,57.66
2022-08-27T13:05:10.103Z,57.91
2022-08-27T13:07:47.078Z,58.33
2022-08-27T13:10:18.809Z,58.19
2022-08-27T13:12:48.704Z,58.47
2022-08-27T13:15:19.521Z,58.01
2022-08-27T13:17:47.588Z,58.26
2022-08-27T13:20:26.437Z,57.71
2022-08-27T13:22:54.375Z,57.18
2022-08-27T13:25:30.202Z,57.01
2022-08-27T13:28:10.419Z,57.33
2022-08-27T13:30:44.050Z,57.61
2022-08-27T13:33:22.606Z,57.86
2022-08-27T13:35:52.608Z,57.60
2022-08-27T13:38:22.403Z,58.18
2022-08-27T13:41:00.055Z,57.89
2022-08-27T13:43:39.659Z,57.88
2022-08-27T13:46:17.833Z,58.30
2022-08-27T13:48:47.278Z,58.07
2022-08-27T13:51:14.994Z,58.07
2022-08-27T13:56:50.357Z,59.01
2022-08-27T13:59:20.214Z,58.66
2022-08-27T14:02:10.410Z,58.02
2022-08-27T14:04:47.584Z,58.44
2022-08-27T14:07:20.916Z,58.68
2022-08-27T14:10:02.203Z,58.14
2022-08-27T14:12:41.507Z,58.88
2022-08-27T14:15:40.107Z,58.66
2022-08-27T14:18:42.253Z,58.13
2022-08-27T14:21:12.256Z,56.98
2022-08-27T14:23:42.275Z,56.47
2022-08-27T14:26:13.188Z,56.48
2022-08-27T14:28:40.905Z,56.55
2022-08-27T14:31:08.910Z,56.09
2022-08-27T14:33:37.179Z,55.50
2022-08-27T14:36:10.811Z,55.41
2022-08-27T14:38:42.760Z,55.72
2022-08-27T14:41:12.884Z,56.39
2022-08-27T14:43:42.946Z,57.18
2022-08-27T14:46:27.744Z,57.07
2022-08-27T14:48:58.069Z,56.90
2022-08-27T14:51:31.431Z,57.04
2022-08-27T14:54:04.275Z,57.86
2022-08-27T14:56:32.507Z,57.63
2022-08-27T14:59:00.002Z,57.07
2022-08-27T15:01:27.378Z,57.41
2022-08-27T15:03:56.235Z,56.94
2022-08-27T15:06:23.837Z,57.18
2022-08-27T15:08:52.481Z,57.30
2022-08-27T15:11:23.951Z,57.38
2022-08-27T15:13:56.416Z,57.35
2022-08-27T15:16:32.132Z,57.80
2022-08-27T15:19:01.195Z,58.43
2022-08-27T15:21:30.522Z,58.85
2022-08-27T15:24:09.857Z,59.34
2022-08-27T15:26:37.075Z,59.28
2022-08-27T15:29:07.073Z,59.16
2022-08-27T15:31:37.467Z,59.30
2022-08-27T15:34:04.707Z,59.32
2022-08-27T15:36:39.191Z,59.31
2022-08-27T15:39:07.460Z,59.02
2022-08-27T15:42:05.412Z,59.01
2022-08-27T15:44:51.268Z,58.91
2022-08-27T15:47:22.403Z,59.06
2022-08-27T15:49:53.900Z,59.09
2022-08-27T15:52:22.935Z,59.36
2022-08-27T15:54:51.019Z,59.12
2022-08-27T15:57:20.525Z,58.75
2022-08-27T15:59:47.950Z,57.95
2022-08-27T16:02:19.538Z,57.86
2022-08-27T16:04:47.745Z,58.03
2022-08-27T16:07:17.777Z,58.51
2022-08-27T16:09:48.744Z,58.81
2022-08-27T16:12:27.016Z,58.93
2022-08-27T16:14:57.483Z,58.66
2022-08-27T16:17:26.501Z,59.23
2022-08-27T16:19:53.641Z,59.60
2022-08-27T16:22:24.732Z,59.82
2022-08-27T16:24:51.519Z,60.16
2022-08-27T16:27:20.744Z,60.58
2022-08-27T16:29:47.511Z,60.57
2022-08-27T16:32:17.296Z,60.42
2022-08-27T16:34:52.546Z,60.96
2022-08-27T16:37:23.014Z,61.25
2022-08-27T16:39:50.438Z,61.33
2022-08-27T16:42:18.290Z,61.54
2022-08-27T16:44:46.122Z,61.55
2022-08-27T16:47:13.144Z,61.36
2022-08-27T16:49:58.273Z,61.14
2022-08-27T16:52:25.538Z,61.07
2022-08-27T16:54:53.288Z,61.02
2022-08-27T16:57:20.408Z,60.92
2022-08-27T16:59:50.256Z,60.98
2022-08-27T17:02:30.413Z,60.84
2022-08-27T17:05:07.393Z,61.19
2022-08-27T17:07:51.410Z,61.31
2022-08-27T17:10:22.031Z,61.06
2022-08-27T17:12:49.382Z,61.00
2022-08-27T17:15:17.471Z,60.99
2022-08-27T17:17:44.914Z,60.74
2022-08-27T17:20:15.343Z,60.55
2022-08-27T17:22:44.954Z,60.21
2022-08-27T17:25:12.529Z,59.53
2022-08-27T17:27:40.363Z,59.25
2022-08-27T17:30:08.185Z,59.15
2022-08-27T17:32:40.006Z,58.88
2022-08-27T17:35:10.702Z,58.58
2022-08-27T17:37:41.926Z,58.63
2022-08-27T17:40:11.241Z,58.48
2022-08-27T17:42:40.979Z,58.76
2022-08-27T17:45:12.122Z,58.97
2022-08-27T17:47:40.995Z,59.38
2022-08-27T17:50:09.436Z,59.29
2022-08-27T17:52:47.810Z,59.43
2022-08-27T17:55:25.444Z,59.33
2022-08-27T17:57:52.343Z,59.37
2022-08-27T18:00:19.934Z,59.73
2022-08-27T18:02:50.327Z,59.81
2022-08-27T18:05:34.339Z,60.07
2022-08-27T18:08:04.462Z,60.40
2022-08-27T18:10:33.880Z,60.66
2022-08-27T18:13:01.399Z,60.99
2022-08-27T18:15:34.005Z,61.05
2022-08-27T18:18:03.596Z,60.69
2022-08-27T18:20:36.040Z,60.09
2022-08-27T18:23:07.797Z,60.30
2022-08-27T18:25:39.304Z,60.42
2022-08-27T18:28:11.093Z,60.58
2022-08-27T18:30:42.242Z,60.67
2022-08-27T18:33:11.584Z,60.86
2022-08-27T18:35:39.401Z,61.06
2022-08-27T18:38:09.905Z,61.35
2022-08-27T18:40:46.656Z,61.58
2022-08-27T18:43:20.512Z,61.74
2022-08-27T18:45:55.468Z,61.65
2022-08-27T18:48:25.427Z,61.56
2022-08-27T18:51:00.150Z,61.77
2022-08-27T18:53:38.540Z,61.81
2022-08-27T18:56:16.626Z,62.02
2022-08-27T18:58:44.504Z,62.14
2022-08-27T19:01:16.164Z,62.23
2022-08-27T19:03:50.415Z,62.43
2022-08-27T19:06:20.452Z,62.71
2022-08-27T19:08:53.953Z,62.96
2022-08-27T19:11:21.069Z,63.20
2022-08-27T19:13:50.587Z,63.48
2022-08-27T19:16:24.862Z,63.72
2022-08-27T19:18:51.817Z,63.75
2022-08-27T19:21:18.539Z,64.01
2022-08-27T19:23:45.601Z,64.11
2022-08-27T19:26:18.345Z,64.06
2022-08-27T19:28:45.690Z,64.25
2022-08-27T19:31:13.973Z,64.39
2022-08-27T19:33:41.211Z,64.42
2022-08-27T19:36:15.022Z,64.51
2022-08-27T19:38:49.475Z,64.52
2022-08-27T19:43:48.599Z,64.49
2022-08-27T19:46:27.064Z,64.24
2022-08-27T19:49:07.355Z,64.36
2022-08-27T19:51:34.777Z,64.41
2022-08-27T19:54:02.166Z,64.42
2022-08-27T19:56:29.236Z,64.02
2022-08-27T19:59:08.723Z,64.07
2022-08-27T20:01:43.844Z,64.21
2022-08-27T20:04:11.482Z,64.15
2022-08-27T20:06:38.195Z,64.12
2022-08-27T20:09:11.159Z,64.24
2022-08-27T20:11:38.358Z,64.30
2022-08-27T20:14:05.588Z,64.19
2022-08-27T20:16:37.417Z,64.21
2022-08-27T20:19:05.599Z,64.32
2022-08-27T20:21:32.587Z,64.06
2022-08-27T20:23:59.385Z,64.00
2022-08-27T20:26:26.633Z,64.08
2022-08-27T20:28:54.517Z,64.05
2022-08-27T20:31:21.662Z,63.91
2022-08-27T20:33:48.964Z,63.85
2022-08-27T20:36:16.087Z,64.01
2022-08-27T20:38:43.099Z,64.02
2022-08-27T20:41:10.170Z,64.58
2022-08-27T20:43:37.104Z,64.61
2022-08-27T20:46:06.360Z,64.68
2022-08-27T20:48:37.456Z,64.68
2022-08-27T20:51:07.779Z,64.89
2022-08-27T20:53:34.853Z,65.02
2022-08-27T20:56:01.770Z,64.97
2022-08-27T20:58:46.924Z,64.81
2022-08-27T21:01:14.032Z,65.15
2022-08-27T21:03:41.142Z,65.51
2022-08-27T21:06:08.529Z,65.84
2022-08-27T21:08:39.178Z,66.00
2022-08-27T21:11:11.899Z,66.48
2022-08-27T21:13:54.920Z,66.80
2022-08-27T21:16:23.738Z,67.14
2022-08-27T21:18:50.932Z,67.41
2022-08-27T21:21:18.350Z,67.80
2022-08-27T21:23:45.243Z,68.11
2022-08-27T21:26:13.583Z,68.54
2022-08-27T21:28:42.899Z,68.86
2022-08-27T21:31:10.570Z,69.12
2022-08-27T21:33:39.685Z,69.25
2022-08-27T21:36:12.157Z,69.63
2022-08-27T21:38:39.763Z,69.56
2022-08-27T21:41:10.202Z,69.99
2022-08-27T21:43:37.724Z,70.14
2022-08-27T21:46:07.972Z,70.59
2022-08-27T21:48:39.478Z,70.89
2022-08-27T21:51:11.107Z,71.40
2022-08-27T21:53:38.221Z,71.49
2022-08-27T21:56:09.617Z,71.67
2022-08-27T21:58:36.678Z,71.91
2022-08-27T22:01:09.892Z,72.10
2022-08-27T22:03:36.987Z,72.39
2022-08-27T22:06:07.429Z,72.73
2022-08-27T22:08:34.711Z,72.67
2022-08-27T22:11:01.781Z,72.93
2022-08-27T22:13:29.103Z,73.10
2022-08-27T22:15:57.120Z,73.37
2022-08-27T22:18:24.073Z,73.47
2022-08-27T22:20:51.453Z,73.66
2022-08-27T22:23:19.394Z,74.12
2022-08-27T22:25:46.681Z,74.25
2022-08-27T22:28:14.420Z,74.43
2022-08-27T22:30:41.992Z,74.57
2022-08-27T22:33:09.133Z,74.89
2022-08-27T22:35:36.244Z,75.10
2022-08-27T22:38:03.360Z,75.20
2022-08-27T22:40:32.681Z,75.59
2022-08-27T22:43:00.432Z,75.39
2022-08-27T22:45:28.841Z,75.59
2022-08-27T22:47:56.570Z,75.62
2022-08-27T22:50:23.916Z,75.58
2022-08-27T22:52:51.546Z,75.60
2022-08-27T22:55:22.065Z,75.56
2022-08-27T22:57:51.333Z,75.91
2022-08-27T23:00:29.153Z,75.81
2022-08-27T23:02:56.210Z,75.87
2022-08-27T23:05:24.499Z,75.92
2022-08-27T23:07:54.880Z,76.25
2022-08-27T23:10:24.299Z,76.60
2022-08-27T23:12:54.107Z,76.77
2022-08-27T23:15:26.509Z,76.95
2022-08-27T23:17:53.942Z,76.89
2022-08-27T23:20:22.086Z,77.16
2022-08-27T23:22:50.379Z,77.37
2022-08-27T23:25:36.694Z,77.17
2022-08-27T23:28:06.542Z,77.25
2022-08-27T23:30:34.982Z,77.35
2022-08-27T23:33:02.035Z,77.37
2022-08-27T23:35:29.314Z,77.38
2022-08-27T23:37:56.345Z,77.46
2022-08-27T23:40:23.676Z,77.60
2022-08-27T23:42:50.572Z,78.15
2022-08-27T23:45:22.139Z,78.25
2022-08-27T23:47:49.343Z,78.43
2022-08-27T23:50:17.272Z,78.74
2022-08-27T23:52:44.276Z,78.55
2022-08-27T23:55:14.879Z,78.50
2022-08-27T23:57:41.678Z,78.44
